Grantsburg, Wisconsin
Current Conditions -  °F | °C
As of 4:34 PM on Wednesday 22 Oct 2014 (Local Time) from KROS Reporting Station
Scattered Clouds Scattered Clouds  
Wind Chill: 58°   Ceiling: Unl
Heat Index: 58°   Visibility: 10mi
Dew Point: 40°   Wind: 17mph
Humidity: 51%   Direction: 140°SE
Pressure: 30.06"   Gusts: 23mph
Location:  45.78°N, 92.68°W
Report Text: KROS 222134Z AUTO 14015G20KT 10SM SCT070 SCT085 SCT095 14/04 A3006 RMK AO2 T01420042
Loading
Personal Weather Stations






























Interactive Weather Map
Tropical Storm Tracking
New forecast layout! Learn more

10-Day Weather Forecast

Advertisements
Track Severe Weather on mobile